Time;durP1;ratioP1;P1;durP2;ratioP2;P2;SDS_P1;SDS_P2;PMS_P1;PMS_P2;Temp;Humidity;BMP_temperature;BMP_pressure;BME280_temperature;BME280_humidity;BME280_pressure;Samples;Min_cycle;Max_cycle;Signal;HPM_P1;HPM_P2
2021/08/07 00:01:23;;;;;;;0.50;0.00;;;16.80;99.90;;;;;;5077249;28;20389;-76
2021/08/07 00:03:48;;;;;;;1.88;0.10;;;16.70;99.90;;;;;;5095008;28;20016;-77
2021/08/07 00:06:14;;;;;;;2.78;0.30;;;16.70;99.90;;;;;;5095000;28;20024;-78
2021/08/07 00:08:39;;;;;;;1.30;0.05;;;16.70;99.90;;;;;;5095129;28;20107;-77
2021/08/07 00:11:05;;;;;;;2.35;0.10;;;16.70;99.90;;;;;;5095201;28;20028;-77
2021/08/07 00:13:31;;;;;;;1.63;0.45;;;16.70;99.90;;;;;;5094649;28;20031;-76
2021/08/07 00:15:56;;;;;;;1.52;0.00;;;16.70;99.90;;;;;;5076487;28;20020;-76
2021/08/07 00:18:22;;;;;;;2.22;0.30;;;16.60;99.90;;;;;;5094766;28;20146;-76
2021/08/07 00:20:47;;;;;;;0.65;0.00;;;16.50;99.90;;;;;;5094824;28;20032;-77
2021/08/07 00:23:13;;;;;;;3.85;0.80;;;16.50;99.90;;;;;;5094645;28;20028;-76
2021/08/07 00:25:38;;;;;;;3.40;0.00;;;16.50;99.90;;;;;;5094879;28;20020;-76
2021/08/07 00:28:04;;;;;;;1.15;0.00;;;16.50;99.90;;;;;;5094621;28;20026;-78
2021/08/07 00:30:30;;;;;;;1.08;0.00;;;16.50;99.90;;;;;;5094742;28;20462;-75
2021/08/07 00:32:56;;;;;;;3.13;0.00;;;16.50;99.90;;;;;;5094661;28;20385;-77
2021/08/07 00:35:22;;;;;;;0.95;0.10;;;16.50;99.90;;;;;;5076372;28;20012;-79
2021/08/07 00:37:47;;;;;;;0.73;0.10;;;16.50;99.90;;;;;;5094668;28;20477;-77
2021/08/07 00:40:13;;;;;;;3.95;0.00;;;16.50;99.90;;;;;;5094833;28;20465;-77
2021/08/07 00:42:39;;;;;;;1.40;0.10;;;16.50;99.90;;;;;;5076053;28;20028;-76
2021/08/07 00:45:05;;;;;;;4.78;0.10;;;16.40;99.90;;;;;;5094176;28;20089;-76
2021/08/07 00:47:31;;;;;;;2.05;0.00;;;16.40;99.90;;;;;;5094503;28;20036;-75
2021/08/07 00:49:57;;;;;;;2.28;0.00;;;16.40;99.90;;;;;;5076201;28;20474;-75
2021/08/07 00:52:22;;;;;;;1.50;0.00;;;16.40;99.90;;;;;;5076399;28;20024;-75
2021/08/07 00:54:48;;;;;;;1.98;0.38;;;16.50;99.90;;;;;;5075694;28;20031;-75
2021/08/07 00:57:13;;;;;;;1.23;0.00;;;16.40;99.90;;;;;;5075747;28;20393;-75
2021/08/07 00:59:39;;;;;;;1.80;0.00;;;16.40;99.90;;;;;;5093962;28;20074;-77
2021/08/07 01:02:23;;;;;;;0.80;0.08;;;16.30;99.90;;;;;;5093950;28;20024;-77
2021/08/07 01:05:00;;;;;;;3.15;0.08;;;16.40;99.90;;;;;;5094266;28;20500;-77
2021/08/07 01:07:40;;;;;;;3.33;0.00;;;16.40;99.90;;;;;;5093917;28;20474;-77
2021/08/07 01:10:24;;;;;;;0.95;0.10;;;16.40;99.90;;;;;;5094024;28;20389;-75
2021/08/07 01:13:06;;;;;;;3.67;0.30;;;16.30;99.90;;;;;;5094000;28;20082;-76
2021/08/07 01:15:35;;;;;;;3.60;0.38;;;16.30;99.90;;;;;;5095051;28;20149;-76
2021/08/07 01:18:02;;;;;;;2.60;0.10;;;16.30;99.90;;;;;;5093654;28;20354;-76
2021/08/07 01:20:35;;;;;;;3.88;0.22;;;16.20;99.90;;;;;;5075594;28;20409;-78
2021/08/07 01:23:10;;;;;;;3.70;0.57;;;16.20;99.90;;;;;;5093679;28;20020;-77
2021/08/07 01:26:00;;;;;;;3.92;0.10;;;16.10;99.90;;;;;;5093556;28;20062;-76
2021/08/07 01:28:31;;;;;;;4.00;0.10;;;16.10;99.90;;;;;;5093510;28;20024;-76
2021/08/07 01:30:58;;;;;;;4.65;0.70;;;16.00;99.90;;;;;;5093412;28;20024;-75
2021/08/07 01:33:29;;;;;;;2.40;0.07;;;15.90;99.90;;;;;;5075723;28;20506;-75
2021/08/07 01:35:55;;;;;;;3.33;0.45;;;15.90;99.90;;;;;;5093413;28;20262;-74
2021/08/07 01:38:21;;;;;;;5.72;0.85;;;15.90;99.90;;;;;;5093388;28;20027;-74
2021/08/07 01:40:47;;;;;;;6.18;0.30;;;15.90;99.90;;;;;;5093459;28;20512;-77
2021/08/07 01:43:12;;;;;;;5.05;0.05;;;15.90;99.90;;;;;;5093550;28;20017;-77
2021/08/07 01:45:39;;;;;;;5.20;0.10;;;15.80;99.90;;;;;;5093493;28;20024;-75
2021/08/07 01:48:18;;;;;;;4.95;0.10;;;15.80;99.90;;;;;;5075156;28;20031;-75
2021/08/07 01:50:51;;;;;;;9.52;1.23;;;15.80;99.90;;;;;;5093806;28;20020;-77
2021/08/07 01:53:24;;;;;;;6.07;0.15;;;15.80;99.90;;;;;;5093587;28;20097;-77
2021/08/07 01:55:58;;;;;;;4.25;0.10;;;15.70;99.90;;;;;;5093487;28;20077;-77
2021/08/07 01:58:27;;;;;;;5.82;0.90;;;15.70;99.90;;;;;;5075316;28;20119;-77
2021/08/07 02:00:53;;;;;;;3.55;0.47;;;15.60;99.90;;;;;;5075106;28;20520;-77
2021/08/07 02:03:20;;;;;;;5.38;0.10;;;15.60;99.90;;;;;;5075302;28;20020;-77
2021/08/07 02:05:46;;;;;;;7.35;0.70;;;15.60;99.90;;;;;;5075112;28;20024;-77
2021/08/07 02:08:13;;;;;;;3.83;0.38;;;15.50;99.90;;;;;;5075120;28;20027;-74
2021/08/07 02:10:43;;;;;;;4.93;0.00;;;15.50;99.90;;;;;;5093259;28;20473;-74
2021/08/07 02:13:12;;;;;;;4.10;0.28;;;15.50;99.90;;;;;;5093301;28;20033;-74
2021/08/07 02:15:38;;;;;;;5.47;0.22;;;15.40;99.90;;;;;;5097033;28;20477;-74
2021/08/07 02:18:04;;;;;;;2.22;0.20;;;15.40;99.90;;;;;;5078861;28;20023;-75
2021/08/07 02:20:30;;;;;;;4.65;0.40;;;15.30;99.90;;;;;;5097012;28;20020;-77
2021/08/07 02:22:56;;;;;;;2.78;0.30;;;15.30;99.90;;;;;;5096927;28;20407;-77
2021/08/07 02:25:22;;;;;;;4.57;0.20;;;15.30;99.90;;;;;;5078893;28;20020;-77
2021/08/07 02:27:49;;;;;;;7.72;1.00;;;15.30;99.90;;;;;;5097025;28;20107;-77
2021/08/07 02:30:15;;;;;;;3.17;0.73;;;15.20;99.90;;;;;;5096870;28;20035;-77
2021/08/07 02:32:41;;;;;;;2.95;0.00;;;15.20;99.90;;;;;;5096897;28;20024;-77
2021/08/07 02:35:10;;;;;;;5.40;0.15;;;15.20;99.90;;;;;;5096738;28;20020;-77
2021/08/07 02:37:36;;;;;;;3.08;0.80;;;15.20;99.90;;;;;;5096681;28;20020;-77
2021/08/07 02:40:05;;;;;;;6.45;0.35;;;15.20;99.90;;;;;;5078569;28;20020;-77
2021/08/07 02:42:31;;;;;;;5.38;0.50;;;15.10;99.90;;;;;;5097016;28;20064;-77
2021/08/07 02:44:57;;;;;;;2.38;0.45;;;15.10;99.90;;;;;;5096524;28;20105;-76
2021/08/07 02:47:24;;;;;;;5.57;0.40;;;15.10;99.90;;;;;;5096423;28;20024;-76
2021/08/07 02:49:51;;;;;;;2.75;0.10;;;15.20;99.90;;;;;;5078179;28;20028;-76
2021/08/07 02:52:17;;;;;;;3.63;0.47;;;15.20;99.90;;;;;;5096224;28;20476;-76
2021/08/07 02:54:44;;;;;;;5.75;0.30;;;15.20;99.90;;;;;;5097205;28;20117;-79
2021/08/07 02:57:10;;;;;;;6.82;0.20;;;15.20;99.90;;;;;;5078986;28;20492;-79
2021/08/07 02:59:35;;;;;;;4.20;0.57;;;15.30;99.90;;;;;;5096629;28;20024;-77
2021/08/07 03:02:02;;;;;;;4.00;0.70;;;15.30;99.90;;;;;;5078040;28;20077;-77
2021/08/07 03:04:30;;;;;;;4.72;0.38;;;15.30;99.90;;;;;;5078187;28;20028;-75
2021/08/07 03:06:55;;;;;;;6.43;0.35;;;15.30;99.90;;;;;;5077975;28;20055;-75
2021/08/07 03:09:21;;;;;;;4.15;0.25;;;15.30;99.90;;;;;;5077843;28;20461;-75
2021/08/07 03:11:47;;;;;;;4.57;0.40;;;15.30;99.90;;;;;;5078345;28;20092;-79
2021/08/07 03:14:13;;;;;;;2.00;0.40;;;15.30;99.90;;;;;;5078129;28;20020;-79
2021/08/07 03:16:39;;;;;;;3.78;0.50;;;15.20;99.90;;;;;;5096380;28;20028;-74
2021/08/07 03:19:05;;;;;;;5.10;0.45;;;15.20;99.90;;;;;;5095964;28;20026;-79
2021/08/07 03:21:30;;;;;;;3.60;0.50;;;15.30;99.90;;;;;;5096528;28;20098;-79
2021/08/07 03:23:56;;;;;;;3.95;0.40;;;15.30;99.90;;;;;;5096198;28;20028;-79
2021/08/07 03:26:23;;;;;;;7.25;0.70;;;15.30;99.90;;;;;;5076941;28;20024;-79
2021/08/07 03:28:49;;;;;;;3.88;0.40;;;15.30;99.90;;;;;;5077994;28;20447;-79
2021/08/07 03:31:14;;;;;;;3.80;0.30;;;15.30;99.90;;;;;;5077434;28;20123;-76
2021/08/07 03:33:40;;;;;;;2.85;0.60;;;15.40;99.90;;;;;;5095412;28;20034;-77
2021/08/07 03:36:06;;;;;;;3.38;0.52;;;15.40;99.90;;;;;;5095683;28;20035;-76
2021/08/07 03:38:31;;;;;;;8.02;1.20;;;15.40;99.90;;;;;;5077284;28;20016;-76
2021/08/07 03:40:57;;;;;;;2.95;0.28;;;15.30;99.90;;;;;;5077290;28;20017;-77
2021/08/07 03:43:23;;;;;;;3.83;0.65;;;15.30;99.90;;;;;;5095534;28;20024;-75
2021/08/07 03:45:48;;;;;;;2.33;0.90;;;15.30;99.90;;;;;;5095318;28;20032;-75
2021/08/07 03:48:14;;;;;;;5.32;1.33;;;15.40;99.90;;;;;;5077163;28;20501;-75
2021/08/07 03:50:40;;;;;;;6.03;0.70;;;15.40;99.90;;;;;;5095284;28;20093;-77
2021/08/07 03:53:05;;;;;;;3.65;0.55;;;15.50;99.90;;;;;;5077186;28;20115;-74
2021/08/07 03:55:31;;;;;;;2.45;0.57;;;15.50;99.90;;;;;;5095060;28;20031;-76
2021/08/07 03:58:01;;;;;;;2.90;0.47;;;15.50;99.90;;;;;;5095065;28;20031;-76
2021/08/07 04:00:29;;;;;;;2.55;0.60;;;15.60;99.90;;;;;;5094934;28;20024;-76
2021/08/07 04:02:55;;;;;;;3.55;0.85;;;15.60;99.90;;;;;;5095198;28;20389;-76
2021/08/07 04:05:21;;;;;;;8.13;0.93;;;15.60;99.90;;;;;;5076758;28;20012;-76
2021/08/07 04:07:47;;;;;;;1.55;0.60;;;15.50;99.90;;;;;;5094925;28;20032;-78
2021/08/07 04:10:14;;;;;;;3.97;0.50;;;15.50;99.90;;;;;;5095006;28;20400;-75
2021/08/07 04:12:40;;;;;;;4.85;0.52;;;15.50;99.90;;;;;;5095037;28;20036;-75
2021/08/07 04:15:07;;;;;;;2.65;0.52;;;15.60;99.90;;;;;;5094898;28;20028;-75
2021/08/07 04:17:34;;;;;;;3.15;0.38;;;15.60;99.90;;;;;;5076702;28;20392;-75
2021/08/07 04:20:00;;;;;;;4.00;0.57;;;15.60;99.90;;;;;;5076665;28;20024;-78
2021/08/07 04:22:25;;;;;;;3.38;0.50;;;15.60;99.90;;;;;;5076694;28;20122;-79
2021/08/07 04:24:51;;;;;;;3.75;0.22;;;15.60;99.90;;;;;;5077048;28;20035;-77
2021/08/07 04:27:17;;;;;;;3.17;0.20;;;15.60;99.90;;;;;;5076815;28;20056;-76
2021/08/07 04:29:43;;;;;;;4.82;0.40;;;15.60;99.90;;;;;;5094520;28;20103;-76
2021/08/07 04:32:08;;;;;;;3.42;0.40;;;15.60;99.90;;;;;;5076147;28;20477;-74
2021/08/07 04:34:34;;;;;;;4.05;0.50;;;15.60;99.90;;;;;;5094530;28;20038;-74
2021/08/07 04:36:59;;;;;;;3.80;0.32;;;15.60;99.90;;;;;;5093997;28;20045;-77
2021/08/07 04:39:25;;;;;;;9.02;1.10;;;15.60;99.90;;;;;;5094472;28;20016;-77
2021/08/07 04:41:50;;;;;;;5.75;0.20;;;15.80;99.90;;;;;;5076114;28;20024;-75
2021/08/07 04:44:16;;;;;;;1.95;0.10;;;15.60;99.90;;;;;;5094224;28;20035;-75
2021/08/07 04:46:41;;;;;;;2.28;0.52;;;15.60;99.90;;;;;;5094668;28;20035;-75
2021/08/07 04:49:07;;;;;;;3.58;0.17;;;15.60;99.90;;;;;;5075867;28;20024;-75
2021/08/07 04:51:32;;;;;;;2.45;0.20;;;15.60;99.90;;;;;;5094162;28;20039;-75
2021/08/07 04:53:58;;;;;;;4.93;0.43;;;15.60;99.90;;;;;;5094183;28;20383;-75
2021/08/07 04:56:23;;;;;;;1.52;0.17;;;15.50;99.90;;;;;;5075834;28;20390;-75
2021/08/07 04:58:49;;;;;;;18.90;0.65;;;15.50;99.90;;;;;;5094420;28;20028;-75
2021/08/07 05:01:14;;;;;;;2.10;0.22;;;15.50;99.90;;;;;;5093814;28;20394;-74
2021/08/07 05:03:40;;;;;;;2.78;0.77;;;15.50;99.90;;;;;;5094249;28;20054;-77
2021/08/07 05:06:05;;;;;;;4.30;0.63;;;15.50;99.90;;;;;;5094227;28;20031;-77
2021/08/07 05:08:31;;;;;;;5.25;0.40;;;15.50;99.90;;;;;;5093924;28;20462;-77
2021/08/07 05:10:57;;;;;;;17.20;1.10;;;15.50;99.90;;;;;;5093874;28;20085;-75
2021/08/07 05:13:22;;;;;;;6.35;0.70;;;15.40;99.90;;;;;;5075933;28;20385;-76
2021/08/07 05:15:48;;;;;;;5.15;1.45;;;15.40;99.90;;;;;;5093736;28;20028;-76
2021/08/07 05:18:13;;;;;;;7.63;0.35;;;15.40;99.90;;;;;;5075500;28;20024;-76
2021/08/07 05:20:39;;;;;;;2.05;0.40;;;15.40;99.90;;;;;;5094015;28;20024;-74
2021/08/07 05:23:04;;;;;;;4.93;1.33;;;15.40;99.90;;;;;;5093939;28;20101;-74
2021/08/07 05:25:30;;;;;;;1.20;0.22;;;15.40;99.90;;;;;;5075447;28;20496;-76
2021/08/07 05:27:55;;;;;;;3.28;0.50;;;15.50;99.90;;;;;;5093747;28;20020;-76
2021/08/07 05:30:21;;;;;;;4.05;0.40;;;15.60;99.90;;;;;;5093680;28;20051;-76
2021/08/07 05:32:47;;;;;;;3.85;0.50;;;15.70;99.90;;;;;;5093525;28;20077;-77
2021/08/07 05:35:12;;;;;;;4.70;0.20;;;15.80;99.90;;;;;;5094141;28;20016;-77
2021/08/07 05:37:40;;;;;;;2.60;0.10;;;15.90;99.90;;;;;;5093734;28;20031;-76
2021/08/07 05:40:07;;;;;;;2.58;0.20;;;16.00;99.90;;;;;;5093397;28;20044;-76
2021/08/07 05:42:33;;;;;;;1.40;0.50;;;16.10;99.90;;;;;;5093269;28;20023;-76
2021/08/07 05:44:58;;;;;;;4.68;0.40;;;16.20;99.90;;;;;;5093369;28;20024;-76
2021/08/07 05:47:24;;;;;;;0.60;0.10;;;16.20;99.90;;;;;;5093937;28;20032;-76
2021/08/07 05:49:49;;;;;;;3.88;0.30;;;16.20;99.90;;;;;;5079410;28;20378;-77
2021/08/07 05:52:15;;;;;;;2.63;0.10;;;16.40;99.90;;;;;;5098809;28;20032;-79
2021/08/07 05:54:40;;;;;;;2.60;0.50;;;16.50;99.90;;;;;;5098029;28;20020;-79
2021/08/07 05:57:06;;;;;;;4.88;0.40;;;16.60;99.90;;;;;;5099314;28;20031;-79
2021/08/07 05:59:31;;;;;;;3.10;0.28;;;16.60;99.90;;;;;;5080220;28;20380;-79
2021/08/07 06:01:57;;;;;;;3.22;0.10;;;16.60;99.90;;;;;;5097336;28;20027;-77
2021/08/07 06:04:23;;;;;;;4.57;0.28;;;16.50;99.90;;;;;;5097898;28;20020;-77
2021/08/07 06:06:48;;;;;;;4.88;0.35;;;16.50;99.90;;;;;;5097400;28;20103;-77
2021/08/07 06:09:14;;;;;;;5.13;0.30;;;16.40;99.90;;;;;;5097310;28;20024;-77
2021/08/07 06:11:39;;;;;;;2.75;0.08;;;16.40;99.90;;;;;;5097120;28;20103;-77
2021/08/07 06:14:05;;;;;;;1.35;0.03;;;16.30;99.90;;;;;;5079151;28;20035;-77
2021/08/07 06:16:30;;;;;;;2.40;0.50;;;16.20;99.90;;;;;;5079006;28;20015;-77
2021/08/07 06:18:56;;;;;;;2.78;0.08;;;16.30;99.90;;;;;;5097681;28;20047;-74
2021/08/07 06:21:21;;;;;;;5.72;0.40;;;16.50;99.90;;;;;;5097126;28;20016;-74
2021/08/07 06:23:47;;;;;;;3.25;0.00;;;16.60;99.90;;;;;;5096819;28;20077;-75
2021/08/07 06:26:15;;;;;;;3.92;0.50;;;16.80;99.90;;;;;;5097119;28;20047;-76
2021/08/07 06:28:40;;;;;;;7.13;0.65;;;16.90;99.90;;;;;;5109326;22;20044;-77
2021/08/07 06:31:06;;;;;;;0.60;0.10;;;17.10;99.90;;;;;;5097007;28;20028;-78
2021/08/07 06:33:32;;;;;;;1.77;0.00;;;17.30;99.90;;;;;;5096867;28;20069;-75
2021/08/07 06:36:01;;;;;;;2.25;0.15;;;17.40;99.90;;;;;;5096685;28;20466;-75
2021/08/07 06:38:27;;;;;;;0.38;0.10;;;17.70;99.90;;;;;;5096964;28;20012;-77
2021/08/07 06:40:53;;;;;;;3.15;0.10;;;17.80;99.90;;;;;;5096756;28;20478;-75
2021/08/07 06:43:19;;;;;;;1.33;0.08;;;18.00;99.90;;;;;;5096561;28;20027;-75
2021/08/07 06:45:45;;;;;;;1.05;0.00;;;18.10;99.90;;;;;;5097005;28;20077;-75
2021/08/07 06:48:11;;;;;;;2.90;0.35;;;18.20;99.90;;;;;;5096706;28;20103;-77
2021/08/07 06:50:37;;;;;;;3.45;0.00;;;18.40;99.90;;;;;;5078308;28;20062;-77
2021/08/07 06:53:02;;;;;;;3.20;0.00;;;18.50;99.90;;;;;;5096607;28;20024;-77
2021/08/07 06:55:28;;;;;;;1.60;0.65;;;18.60;99.90;;;;;;5078292;28;20440;-77
2021/08/07 06:57:53;;;;;;;6.47;0.35;;;18.60;99.90;;;;;;5096404;28;20107;-77
2021/08/07 07:00:19;;;;;;;0.47;0.00;;;18.60;99.90;;;;;;5077853;28;20044;-77
2021/08/07 07:02:44;;;;;;;2.95;0.00;;;18.50;99.90;;;;;;5096589;28;20016;-78
2021/08/07 07:05:10;;;;;;;0.57;0.00;;;18.60;99.90;;;;;;5096062;28;20061;-76
2021/08/07 07:07:39;;;;;;;1.85;0.00;;;18.50;99.90;;;;;;5077983;28;20477;-76
2021/08/07 07:10:10;;;;;;;1.33;0.00;;;18.50;99.90;;;;;;5096296;28;20024;-76
2021/08/07 07:12:36;;;;;;;1.70;0.00;;;18.40;99.90;;;;;;5077797;28;20028;-76
2021/08/07 07:15:02;;;;;;;2.90;0.00;;;18.40;99.90;;;;;;5077696;28;20115;-76
2021/08/07 07:17:28;;;;;;;5.45;0.10;;;18.50;99.90;;;;;;5096052;28;20024;-76
2021/08/07 07:19:54;;;;;;;3.10;0.00;;;18.60;99.90;;;;;;5096054;28;20479;-77
2021/08/07 07:22:20;;;;;;;1.60;0.00;;;18.70;99.90;;;;;;5077939;28;20043;-74
2021/08/07 07:24:46;;;;;;;1.45;0.00;;;18.70;99.90;;;;;;5095715;28;20024;-74
2021/08/07 07:27:12;;;;;;;1.65;0.00;;;18.80;99.90;;;;;;5095767;28;20020;-76
2021/08/07 07:29:39;;;;;;;0.85;0.00;;;18.90;99.90;;;;;;5095511;28;20039;-74
2021/08/07 07:32:06;;;;;;;2.10;0.45;;;19.20;99.90;;;;;;5095710;28;20026;-77
2021/08/07 07:34:31;;;;;;;0.57;0.00;;;19.40;99.90;;;;;;5095783;28;20032;-78
2021/08/07 07:36:57;;;;;;;1.92;0.00;;;19.60;99.90;;;;;;5108573;22;20050;-77
2021/08/07 07:39:23;;;;;;;2.65;0.30;;;19.70;99.90;;;;;;5077538;28;20400;-77
2021/08/07 07:41:48;;;;;;;1.20;0.00;;;19.70;99.90;;;;;;5095631;28;20020;-75
2021/08/07 07:44:14;;;;;;;1.27;0.00;;;19.60;99.90;;;;;;5095601;28;20112;-75
2021/08/07 07:46:39;;;;;;;5.43;0.45;;;19.40;99.90;;;;;;5095715;28;20082;-77
2021/08/07 07:49:05;;;;;;;1.05;0.00;;;19.30;99.90;;;;;;5095604;28;20469;-77
2021/08/07 07:51:31;;;;;;;3.80;0.15;;;19.00;99.90;;;;;;5095865;28;20028;-78
2021/08/07 07:53:56;;;;;;;5.68;0.20;;;18.90;99.90;;;;;;5096249;28;20047;-78
2021/08/07 07:56:22;;;;;;;2.20;0.00;;;18.90;99.90;;;;;;5096233;28;20027;-78
2021/08/07 07:58:47;;;;;;;3.75;0.00;;;18.90;99.90;;;;;;5077720;28;20020;-78
2021/08/07 08:01:13;;;;;;;1.25;0.00;;;18.80;99.90;;;;;;5095974;28;20028;-78
2021/08/07 08:03:38;;;;;;;2.75;0.05;;;18.80;99.90;;;;;;5095530;28;20378;-78
2021/08/07 08:06:06;;;;;;;2.58;0.00;;;18.70;99.90;;;;;;5095553;28;20031;-76
2021/08/07 08:08:32;;;;;;;1.83;0.00;;;18.80;99.90;;;;;;5076661;28;20024;-76
2021/08/07 08:10:58;;;;;;;2.25;0.00;;;18.80;99.90;;;;;;5094587;28;20030;-77
2021/08/07 08:13:23;;;;;;;1.98;0.00;;;18.80;99.90;;;;;;5095647;28;20030;-79
2021/08/07 08:15:49;;;;;;;1.13;0.00;;;18.90;99.90;;;;;;5095031;28;20051;-75
2021/08/07 08:18:15;;;;;;;2.63;0.00;;;19.00;99.90;;;;;;5076561;28;20016;-75
2021/08/07 08:20:41;;;;;;;1.73;0.00;;;19.00;99.90;;;;;;5076503;28;20028;-75
2021/08/07 08:23:07;;;;;;;0.82;0.00;;;19.10;99.90;;;;;;5076999;28;20366;-78
2021/08/07 08:25:33;;;;;;;2.88;0.20;;;19.20;99.90;;;;;;5095231;28;20035;-79
2021/08/07 08:27:58;;;;;;;2.17;0.00;;;19.40;99.90;;;;;;5095164;28;20024;-78
2021/08/07 08:30:26;;;;;;;3.33;0.00;;;19.40;99.90;;;;;;5076855;28;20118;-77
2021/08/07 08:32:52;;;;;;;0.93;0.00;;;19.50;99.90;;;;;;5094821;28;20024;-77
2021/08/07 08:35:18;;;;;;;2.38;0.00;;;19.60;99.90;;;;;;5094430;28;20293;-77
2021/08/07 08:37:43;;;;;;;3.33;0.13;;;19.70;99.90;;;;;;5094735;28;20032;-77
2021/08/07 08:40:09;;;;;;;2.00;0.00;;;19.70;99.90;;;;;;5094310;28;20024;-77
2021/08/07 08:42:35;;;;;;;2.08;0.08;;;20.00;99.90;;;;;;5094684;28;20062;-77
2021/08/07 08:45:00;;;;;;;1.08;0.00;;;20.20;99.90;;;;;;5094627;28;20028;-77
2021/08/07 08:47:26;;;;;;;3.05;0.00;;;20.50;99.90;;;;;;5094269;28;20099;-77
2021/08/07 08:49:52;;;;;;;1.05;0.00;;;20.70;99.90;;;;;;5075952;28;20024;-75
2021/08/07 08:52:22;;;;;;;4.28;0.10;;;20.80;99.90;;;;;;5075892;28;20085;-75
2021/08/07 08:54:48;;;;;;;0.47;0.00;;;20.70;99.90;;;;;;5093959;28;20093;-76
2021/08/07 08:57:14;;;;;;;2.83;0.00;;;20.70;99.90;;;;;;5093962;28;20016;-75
2021/08/07 08:59:42;;;;;;;2.70;0.00;;;20.70;99.90;;;;;;5093875;28;20031;-75
2021/08/07 09:02:07;;;;;;;0.20;0.00;;;20.80;99.90;;;;;;5093840;28;20047;-77
2021/08/07 09:04:33;;;;;;;4.13;0.43;;;20.80;99.90;;;;;;5094277;28;20027;-77
2021/08/07 09:06:58;;;;;;;2.90;0.20;;;20.80;99.90;;;;;;5093882;28;20107;-77
2021/08/07 09:09:35;;;;;;;0.77;0.00;;;20.90;99.90;;;;;;5094047;28;20023;-75
2021/08/07 09:12:01;;;;;;;1.17;0.22;;;20.90;99.90;;;;;;5075843;28;20027;-75
2021/08/07 09:14:33;;;;;;;1.98;0.00;;;20.90;99.90;;;;;;5094001;28;20497;-75
2021/08/07 09:16:58;;;;;;;0.80;0.13;;;20.80;99.90;;;;;;5094273;28;20071;-75
2021/08/07 09:19:28;;;;;;;2.92;0.00;;;20.90;99.90;;;;;;5093993;28;20051;-76
2021/08/07 09:22:28;;;;;;;5.18;0.00;;;20.90;99.90;;;;;;5094268;28;20036;-78
2021/08/07 09:25:16;;;;;;;0.38;0.00;;;21.00;99.90;;;;;;5093872;28;20378;-74
2021/08/07 09:27:51;;;;;;;0.77;0.00;;;21.20;99.90;;;;;;5093631;28;20026;-75
2021/08/07 09:30:16;;;;;;;0.30;0.00;;;21.40;99.90;;;;;;5093653;28;20027;-74
2021/08/07 09:32:57;;;;;;;3.75;0.00;;;21.60;99.90;;;;;;5094001;28;20077;-74
2021/08/07 09:35:24;;;;;;;1.55;0.00;;;21.50;99.90;;;;;;5094005;28;20035;-75
2021/08/07 09:38:23;;;;;;;1.02;0.00;;;21.70;99.90;;;;;;5093327;28;20102;-74
2021/08/07 09:40:57;;;;;;;0.50;0.00;;;21.80;99.90;;;;;;5093636;28;20012;-77
2021/08/07 09:43:26;;;;;;;0.82;0.00;;;21.80;99.90;;;;;;5093676;28;20048;-77
2021/08/07 09:46:02;;;;;;;2.90;0.00;;;21.80;99.90;;;;;;5094079;28;20030;-76
2021/08/07 09:48:46;;;;;;;1.45;0.10;;;21.80;99.90;;;;;;5093307;28;20435;-76
2021/08/07 09:51:35;;;;;;;3.60;0.00;;;21.80;99.90;;;;;;5093333;28;20021;-76
2021/08/07 09:54:07;;;;;;;1.90;0.00;;;21.90;99.90;;;;;;5093301;28;20024;-76
2021/08/07 09:56:47;;;;;;;1.52;0.05;;;22.00;99.90;;;;;;5093757;28;20024;-78
2021/08/07 09:59:14;;;;;;;1.23;0.00;;;22.20;99.90;;;;;;5093675;28;20028;-76
2021/08/07 10:01:40;;;;;;;1.02;0.00;;;22.40;99.60;;;;;;5075258;28;20099;-77
2021/08/07 10:04:08;;;;;;;3.47;0.03;;;22.70;99.10;;;;;;5093299;28;20113;-76
2021/08/07 10:06:36;;;;;;;1.40;0.00;;;22.90;99.90;;;;;;5093432;28;20024;-76
2021/08/07 10:09:02;;;;;;;1.98;0.00;;;23.00;98.10;;;;;;5074999;28;20069;-76
2021/08/07 10:11:29;;;;;;;0.95;0.10;;;23.00;95.90;;;;;;5074894;28;20063;-76
2021/08/07 10:13:55;;;;;;;0.98;0.00;;;23.20;96.30;;;;;;5093284;28;20020;-79
2021/08/07 10:16:21;;;;;;;6.10;0.52;;;23.20;95.50;;;;;;5094078;28;20074;-78
2021/08/07 10:18:48;;;;;;;0.95;0.17;;;23.20;95.30;;;;;;5105875;22;20489;-77
2021/08/07 10:21:14;;;;;;;1.92;0.00;;;23.00;95.70;;;;;;5105655;22;20119;-77
2021/08/07 10:23:41;;;;;;;3.85;0.20;;;22.70;95.90;;;;;;5093216;28;20091;-77
2021/08/07 10:26:10;;;;;;;3.35;0.05;;;22.30;98.00;;;;;;5093240;28;20389;-77
2021/08/07 10:28:42;;;;;;;2.08;0.00;;;21.80;99.90;;;;;;5074889;28;20032;-77
2021/08/07 10:31:13;;;;;;;2.33;0.10;;;21.10;99.90;;;;;;5093210;28;20477;-77
2021/08/07 10:33:43;;;;;;;0.55;0.00;;;20.20;99.90;;;;;;5074926;28;20031;-77
2021/08/07 10:36:10;;;;;;;0.73;0.32;;;19.50;99.90;;;;;;5078234;28;20027;-77
2021/08/07 10:38:37;;;;;;;2.50;0.15;;;19.20;99.90;;;;;;5096747;28;20509;-74
2021/08/07 10:41:02;;;;;;;2.30;0.20;;;19.30;99.90;;;;;;5078349;28;20027;-75
2021/08/07 10:43:32;;;;;;;4.43;0.00;;;19.60;99.90;;;;;;5096528;28;20020;-75
2021/08/07 10:45:58;;;;;;;1.67;0.00;;;20.10;99.90;;;;;;5097248;28;20027;-78
2021/08/07 10:48:42;;;;;;;2.22;0.00;;;20.40;99.90;;;;;;5078475;28;20074;-75
2021/08/07 10:51:22;;;;;;;1.38;0.20;;;20.80;99.90;;;;;;5078204;28;20042;-76
2021/08/07 10:53:57;;;;;;;0.60;0.15;;;21.10;99.90;;;;;;5096263;28;20409;-75
2021/08/07 10:56:29;;;;;;;1.67;0.00;;;21.30;99.90;;;;;;5096434;28;20024;-75
2021/08/07 10:58:56;;;;;;;0.30;0.00;;;21.50;99.90;;;;;;5096202;28;20031;-75
2021/08/07 11:01:25;;;;;;;2.83;0.52;;;21.70;99.90;;;;;;5096180;28;20327;-74
2021/08/07 11:04:02;;;;;;;0.25;0.20;;;21.80;99.90;;;;;;5096152;28;20031;-76
2021/08/07 11:06:43;;;;;;;1.88;0.10;;;22.00;99.90;;;;;;5096679;28;20024;-76
2021/08/07 11:09:14;;;;;;;1.70;0.35;;;22.00;99.90;;;;;;5096460;28;20363;-77
2021/08/07 11:11:40;;;;;;;1.95;0.20;;;22.10;99.90;;;;;;5077891;28;20111;-75
2021/08/07 11:14:21;;;;;;;2.28;0.47;;;22.40;99.90;;;;;;5095856;28;20024;-75
2021/08/07 11:17:05;;;;;;;2.38;0.22;;;22.70;99.90;;;;;;5095993;28;20028;-77
2021/08/07 11:19:59;;;;;;;1.75;0.25;;;23.10;99.90;;;;;;5077767;28;20030;-76
2021/08/07 11:22:31;;;;;;;1.23;0.00;;;23.20;99.90;;;;;;5095948;28;20423;-76
2021/08/07 11:25:00;;;;;;;0.93;0.00;;;23.00;99.90;;;;;;5077545;28;20022;-74
2021/08/07 11:27:44;;;;;;;0.38;0.00;;;23.00;99.90;;;;;;5095688;28;20016;-74
2021/08/07 11:30:34;;;;;;;1.20;0.00;;;23.00;99.90;;;;;;5095830;28;20032;-78
2021/08/07 11:33:00;;;;;;;0.15;0.00;;;22.90;99.90;;;;;;5095974;28;20095;-77
2021/08/07 11:35:49;;;;;;;2.47;0.00;;;22.80;99.90;;;;;;5095418;28;20024;-76
2021/08/07 11:38:20;;;;;;;3.83;0.80;;;22.50;99.90;;;;;;5077404;28;20024;-77
2021/08/07 11:40:48;;;;;;;0.55;0.05;;;22.60;99.90;;;;;;5095443;28;20016;-74
2021/08/07 11:43:13;;;;;;;1.58;0.00;;;22.70;99.90;;;;;;5095397;28;20016;-74
2021/08/07 11:45:40;;;;;;;1.85;0.00;;;22.70;99.90;;;;;;5094605;28;20030;-74
2021/08/07 11:48:06;;;;;;;4.22;0.28;;;22.60;99.90;;;;;;5094981;28;20085;-74
2021/08/07 11:50:32;;;;;;;0.30;0.00;;;22.60;98.90;;;;;;5077062;28;20024;-76
2021/08/07 11:52:58;;;;;;;0.47;0.00;;;22.70;98.00;;;;;;5077079;28;20031;-76
2021/08/07 11:55:33;;;;;;;2.25;0.00;;;22.90;96.40;;;;;;5095686;28;20032;-76
2021/08/07 11:58:04;;;;;;;1.00;0.00;;;22.90;94.60;;;;;;5077070;28;20489;-76
2021/08/07 12:00:31;;;;;;;0.75;0.00;;;22.80;94.70;;;;;;5077077;28;20599;-76
2021/08/07 12:02:57;;;;;;;1.75;0.10;;;23.10;97.30;;;;;;5094965;28;20012;-76
2021/08/07 12:05:23;;;;;;;2.63;0.10;;;23.50;95.90;;;;;;5095306;28;20187;-74
2021/08/07 12:07:58;;;;;;;1.60;0.00;;;23.90;94.10;;;;;;5095136;28;20111;-74
2021/08/07 12:10:23;;;;;;;2.47;0.45;;;24.10;91.90;;;;;;5076688;28;20088;-76
2021/08/07 12:12:49;;;;;;;0.93;0.00;;;24.20;92.00;;;;;;5076686;28;20456;-76
2021/08/07 12:15:15;;;;;;;0.45;0.00;;;24.30;89.30;;;;;;5095084;28;20028;-76
2021/08/07 12:17:45;;;;;;;0.68;0.00;;;24.30;90.60;;;;;;5094622;28;20043;-76
2021/08/07 12:20:11;;;;;;;0.30;0.00;;;24.20;86.50;;;;;;5076452;28;20020;-76
2021/08/07 12:23:00;;;;;;;1.27;0.30;;;24.10;84.10;;;;;;5076211;28;20036;-75
2021/08/07 12:25:26;;;;;;;1.70;0.00;;;24.50;88.40;;;;;;5095276;28;20031;-74
2021/08/07 12:28:05;;;;;;;1.42;0.20;;;24.90;82.30;;;;;;5095102;28;20505;-78
2021/08/07 12:30:32;;;;;;;1.45;0.00;;;25.10;81.50;;;;;;5076353;28;20016;-76
2021/08/07 12:33:18;;;;;;;0.73;0.00;;;25.20;75.30;;;;;;5076232;28;20073;-74
2021/08/07 12:35:43;;;;;;;2.10;0.05;;;25.30;72.30;;;;;;5094423;28;20032;-74
2021/08/07 12:38:14;;;;;;;2.50;0.00;;;25.50;74.80;;;;;;5076189;28;20020;-74
2021/08/07 12:40:41;;;;;;;3.28;0.30;;;25.40;72.10;;;;;;5094237;28;20024;-76
2021/08/07 12:43:07;;;;;;;4.22;0.00;;;25.40;69.80;;;;;;5076188;28;20037;-77
2021/08/07 12:45:32;;;;;;;1.30;0.00;;;25.40;71.00;;;;;;5095044;28;20028;-78
2021/08/07 12:47:58;;;;;;;1.50;0.00;;;25.20;71.80;;;;;;5076172;28;20026;-76
2021/08/07 12:50:25;;;;;;;2.83;0.25;;;25.40;77.50;;;;;;5094130;28;20107;-77
2021/08/07 12:52:53;;;;;;;0.45;0.00;;;25.80;77.10;;;;;;5077115;28;20035;-77